createdAt,value
2022-08-26T00:01:12.123Z,98698.41
2022-08-26T00:02:45.551Z,98688.19
2022-08-26T00:04:22.248Z,98686.50
2022-08-26T00:05:55.866Z,98691.31
2022-08-26T00:07:29.415Z,98687.34
2022-08-26T00:09:08.081Z,98685.34
2022-08-26T00:10:44.163Z,98689.78
2022-08-26T00:12:17.470Z,98692.16
2022-08-26T00:13:51.291Z,98677.72
2022-08-26T00:15:27.998Z,98690.47
2022-08-26T00:17:01.775Z,98690.47
2022-08-26T00:18:38.682Z,98689.06
2022-08-26T00:20:16.963Z,98695.44
2022-08-26T00:21:51.364Z,98686.91
2022-08-26T00:23:24.979Z,98680.13
2022-08-26T00:25:02.524Z,98685.63
2022-08-26T00:26:37.518Z,98674.88
2022-08-26T00:28:12.133Z,98679.69
2022-08-26T00:29:45.421Z,98673.75
2022-08-26T00:31:19.178Z,98666.09
2022-08-26T00:32:52.803Z,98666.66
2022-08-26T00:34:27.347Z,98688.47
2022-08-26T00:36:01.408Z,98690.75
2022-08-26T00:37:35.801Z,98685.59
2022-08-26T00:39:09.657Z,98673.97
2022-08-26T00:40:47.756Z,98676.34
2022-08-26T00:42:22.717Z,98679.56
2022-08-26T00:43:56.082Z,98684.97
2022-08-26T00:45:39.763Z,98688.38
2022-08-26T00:47:21.966Z,98686.81
2022-08-26T00:49:03.311Z,98691.78
2022-08-26T00:50:40.909Z,98694.91
2022-08-26T00:52:17.737Z,98687.25
2022-08-26T00:53:55.316Z,98688.69
2022-08-26T00:55:34.759Z,98685.03
2022-08-26T00:57:16.512Z,98685.72
2022-08-26T00:58:52.204Z,98683.03
2022-08-26T01:00:29.620Z,98685.72
2022-08-26T01:02:05.628Z,98681.19
2022-08-26T01:03:40.713Z,98686.72
2022-08-26T01:05:18.069Z,98690.09
2022-08-26T01:06:54.594Z,98692.66
2022-08-26T01:08:28.088Z,98688.13
2022-08-26T01:10:03.890Z,98683.75
2022-08-26T01:11:37.452Z,98689.84
2022-08-26T01:13:12.606Z,98692.38
2022-08-26T01:14:47.399Z,98689.84
2022-08-26T01:16:23.742Z,98686.72
2022-08-26T01:17:56.519Z,98690.28
2022-08-26T01:19:32.999Z,98685.28
2022-08-26T01:21:12.500Z,98698.28
2022-08-26T01:22:54.733Z,98693.22
2022-08-26T01:24:30.127Z,98689.09
2022-08-26T01:26:07.672Z,98696.28
2022-08-26T01:27:55.541Z,98692.56
2022-08-26T01:29:31.579Z,98697.97
2022-08-26T01:31:08.958Z,98696.81
2022-08-26T01:32:44.953Z,98698.25
2022-08-26T01:34:21.816Z,98699.25
2022-08-26T01:35:55.121Z,98698.53
2022-08-26T01:37:34.144Z,98706.31
2022-08-26T01:39:10.414Z,98703.91
2022-08-26T01:40:46.205Z,98709.56
2022-08-26T01:42:22.525Z,98704.59
2022-08-26T01:43:58.718Z,98709.53
2022-08-26T01:45:36.218Z,98708.94
2022-08-26T01:47:11.518Z,98713.63
2022-08-26T01:48:47.105Z,98710.94
2022-08-26T01:50:27.621Z,98706.13
2022-08-26T01:52:05.650Z,98709.69
2022-08-26T01:53:41.793Z,98705.88
2022-08-26T01:55:25.639Z,98706.72
2022-08-26T01:57:08.027Z,98720.84
2022-08-26T01:58:44.324Z,98713.75
2022-08-26T02:00:17.527Z,98701.88
2022-08-26T02:01:52.840Z,98715.75
2022-08-26T02:03:29.214Z,98706.72
2022-08-26T02:05:08.643Z,98702.31
2022-08-26T02:06:42.996Z,98712.38
2022-08-26T02:08:22.696Z,98699.44
2022-08-26T02:09:58.736Z,98711.47
2022-08-26T02:11:34.266Z,98713.97
2022-08-26T02:13:11.716Z,98715.69
2022-08-26T02:14:53.290Z,98715.41
2022-08-26T02:16:31.431Z,98716.84
2022-08-26T02:18:07.555Z,98715.16
2022-08-26T02:19:50.567Z,98715.16
2022-08-26T02:21:24.934Z,98710.03
2022-08-26T02:22:57.495Z,98727.03
2022-08-26T02:24:47.253Z,98722.50
2022-08-26T02:26:24.282Z,98724.47
2022-08-26T02:28:02.169Z,98719.59
2022-08-26T02:29:42.567Z,98704.28
2022-08-26T02:31:15.874Z,98714.75
2022-08-26T02:32:49.575Z,98719.59
2022-08-26T02:34:31.013Z,98715.69
2022-08-26T02:36:06.366Z,98715.16
2022-08-26T02:37:41.857Z,98718.66
2022-08-26T02:39:22.036Z,98719.28
2022-08-26T02:40:55.768Z,98717.28
2022-08-26T02:42:29.138Z,98724.66
2022-08-26T02:44:04.687Z,98717.41
2022-08-26T02:45:38.226Z,98718.28
2022-08-26T02:47:14.995Z,98714.16
2022-08-26T02:48:48.502Z,98720.25
2022-08-26T02:50:23.240Z,98712.03
2022-08-26T02:52:01.844Z,98721.69
2022-08-26T02:53:35.745Z,98714.31
2022-08-26T02:55:09.854Z,98721.13
2022-08-26T02:56:44.176Z,98723.44
2022-08-26T02:58:17.522Z,98723.56
2022-08-26T02:59:52.739Z,98720.59
2022-08-26T03:01:28.126Z,98714.97
2022-08-26T03:03:01.980Z,98722.03
2022-08-26T03:04:35.391Z,98723.72
2022-08-26T03:06:09.164Z,98725.41
2022-08-26T03:07:44.593Z,98730.81
2022-08-26T03:09:19.709Z,98726.25
2022-08-26T03:10:52.913Z,98723.13
2022-08-26T03:12:32.976Z,98727.06
2022-08-26T03:14:07.400Z,98744.47
2022-08-26T03:15:42.656Z,98738.09
2022-08-26T03:17:16.185Z,98731.03
2022-08-26T03:18:52.179Z,98736.66
2022-08-26T03:20:26.346Z,98733.50
2022-08-26T03:21:59.730Z,98740.88
2022-08-26T03:23:34.323Z,98735.50
2022-08-26T03:25:17.586Z,98743.56
2022-08-26T03:26:52.942Z,98739.19
2022-08-26T03:28:27.257Z,98744.78
2022-08-26T03:30:19.112Z,98752.38
2022-08-26T03:31:54.584Z,98739.63
2022-08-26T03:33:28.935Z,98748.50
2022-08-26T03:35:02.153Z,98744.25
2022-08-26T03:36:36.307Z,98753.44
2022-08-26T03:38:11.095Z,98746.38
2022-08-26T03:39:44.454Z,98749.06
2022-08-26T03:41:18.567Z,98743.22
2022-08-26T03:42:54.125Z,98748.59
2022-08-26T03:44:27.849Z,98734.97
2022-08-26T03:46:05.532Z,98751.28
2022-08-26T03:47:41.051Z,98755.69
2022-08-26T03:49:15.211Z,98761.88
2022-08-26T03:50:48.759Z,98744.59
2022-08-26T03:52:23.364Z,98759.63
2022-08-26T03:53:57.072Z,98757.88
2022-08-26T03:55:33.195Z,98763.25
2022-08-26T03:57:06.755Z,98760.88
2022-08-26T03:58:38.998Z,98766.50
2022-08-26T04:00:18.733Z,98767.47
2022-08-26T04:01:53.042Z,98764.78
2022-08-26T04:03:46.874Z,98769.31
2022-08-26T04:05:22.741Z,98761.38
2022-08-26T04:06:59.509Z,98773.00
2022-08-26T04:08:33.074Z,98768.44
2022-08-26T04:10:08.292Z,98773.13
2022-08-26T04:11:45.796Z,98773.13
2022-08-26T04:13:24.169Z,98760.94
2022-08-26T04:14:58.236Z,98773.38
2022-08-26T04:16:33.847Z,98769.69
2022-08-26T04:18:08.492Z,98763.81
2022-08-26T04:19:44.327Z,98764.66
2022-08-26T04:21:17.562Z,98764.50
2022-08-26T04:22:53.074Z,98770.63
2022-08-26T04:24:27.854Z,98772.06
2022-08-26T04:26:01.464Z,98765.31
2022-08-26T04:27:35.507Z,98773.94
2022-08-26T04:29:12.487Z,98776.38
2022-08-26T04:30:46.228Z,98780.75
2022-08-26T04:32:20.264Z,98778.94
2022-08-26T04:33:53.770Z,98760.00
2022-08-26T04:35:29.468Z,98770.75
2022-08-26T04:37:02.828Z,98768.50
2022-08-26T04:38:36.467Z,98765.44
2022-08-26T04:40:12.012Z,98776.81
2022-08-26T04:41:46.176Z,98780.22
2022-08-26T04:43:18.703Z,98763.81
2022-08-26T04:44:52.431Z,98766.13
2022-08-26T04:46:26.050Z,98758.03
2022-08-26T04:47:59.260Z,98754.22
2022-08-26T04:49:35.471Z,98767.41
2022-08-26T04:51:11.527Z,98757.34
2022-08-26T04:52:44.767Z,98764.72
2022-08-26T04:54:18.444Z,98756.19
2022-08-26T04:55:52.499Z,98751.06
2022-08-26T04:57:29.137Z,98761.25
2022-08-26T04:59:03.057Z,98759.81
2022-08-26T05:00:38.428Z,98766.69
2022-08-26T05:02:12.006Z,98769.81
2022-08-26T05:03:44.876Z,98765.59
2022-08-26T05:05:18.790Z,98763.25
2022-08-26T05:06:57.839Z,98767.50
2022-08-26T05:08:37.048Z,98756.91
2022-08-26T05:10:12.594Z,98755.38
2022-08-26T05:11:52.149Z,98762.88
2022-08-26T05:13:28.783Z,98756.09
2022-08-26T05:15:02.061Z,98749.63
2022-08-26T05:16:40.333Z,98750.78
2022-08-26T05:18:21.360Z,98755.59
2022-08-26T05:19:56.423Z,98755.78
2022-08-26T05:21:30.245Z,98755.66
2022-08-26T05:23:06.112Z,98757.66
2022-08-26T05:24:41.247Z,98766.75
2022-08-26T05:26:15.037Z,98767.63
2022-08-26T05:27:50.035Z,98760.81
2022-08-26T05:29:24.064Z,98761.06
2022-08-26T05:30:58.300Z,98727.28
2022-08-26T05:32:32.041Z,98750.16
2022-08-26T05:34:06.201Z,98744.19
2022-08-26T05:35:40.992Z,98738.53
2022-08-26T05:37:14.214Z,98745.25
2022-08-26T05:38:51.763Z,98730.09
2022-08-26T05:40:25.578Z,98748.94
2022-08-26T05:41:59.665Z,98738.63
2022-08-26T05:43:33.259Z,98748.81
2022-08-26T05:45:08.810Z,98740.00
2022-08-26T05:46:44.850Z,98739.72
2022-08-26T05:48:22.694Z,98753.31
2022-08-26T05:49:57.545Z,98747.75
2022-08-26T05:51:31.806Z,98750.16
2022-08-26T05:53:05.250Z,98743.09
2022-08-26T05:54:41.948Z,98748.75
2022-08-26T05:56:15.919Z,98748.47
2022-08-26T05:57:49.171Z,98742.84
2022-08-26T05:59:24.498Z,98748.22
2022-08-26T06:01:01.209Z,98749.25
2022-08-26T06:02:34.532Z,98756.03
2022-08-26T06:04:07.986Z,98751.63
2022-08-26T06:05:41.217Z,98759.00
2022-08-26T06:07:17.024Z,98754.69
2022-08-26T06:08:52.371Z,98753.91
2022-08-26T06:10:32.642Z,98752.69
2022-08-26T06:12:06.786Z,98749.50
2022-08-26T06:13:41.676Z,98753.41
2022-08-26T06:15:15.667Z,98749.56
2022-08-26T06:16:48.945Z,98753.53
2022-08-26T06:18:24.422Z,98762.53
2022-08-26T06:19:59.740Z,98755.66
2022-08-26T06:21:39.183Z,98748.34
2022-08-26T06:23:30.703Z,98762.78
2022-08-26T06:25:21.628Z,98743.34
2022-08-26T06:27:01.495Z,98753.41
2022-08-26T06:28:35.085Z,98744.47
2022-08-26T06:30:11.405Z,98755.06
2022-08-26T06:31:46.048Z,98735.69
2022-08-26T06:33:19.566Z,98731.41
2022-08-26T06:34:52.739Z,98741.38
2022-08-26T06:36:28.973Z,98726.91
2022-08-26T06:38:02.758Z,98724.13
2022-08-26T06:39:40.134Z,98718.91
2022-08-26T06:41:14.763Z,98729.63
2022-08-26T06:42:49.656Z,98724.50
2022-08-26T06:44:23.707Z,98723.41
2022-08-26T06:46:04.297Z,98729.72
2022-08-26T06:47:38.456Z,98733.16
2022-08-26T06:49:13.013Z,98724.34
2022-08-26T06:50:47.219Z,98733.22
2022-08-26T06:52:24.350Z,98721.44
2022-08-26T06:53:59.614Z,98722.50
2022-08-26T06:55:33.090Z,98720.09
2022-08-26T06:57:06.886Z,98729.09
2022-08-26T06:58:42.339Z,98727.09
2022-08-26T07:00:16.607Z,98730.72
2022-08-26T07:01:54.783Z,98721.25
2022-08-26T07:03:28.677Z,98715.56
2022-08-26T07:05:02.148Z,98725.09
2022-08-26T07:06:39.204Z,98729.19
2022-08-26T07:08:13.032Z,98733.75
2022-08-26T07:09:47.323Z,98728.28
2022-08-26T07:11:23.006Z,98724.84
2022-08-26T07:12:57.614Z,98727.72
2022-08-26T07:14:32.470Z,98726.19
2022-08-26T07:16:08.191Z,98724.31
2022-08-26T07:17:42.808Z,98727.97
2022-08-26T07:19:17.572Z,98730.16
2022-08-26T07:21:03.117Z,98726.28
2022-08-26T07:22:37.755Z,98734.97
2022-08-26T07:24:12.163Z,98735.72
2022-08-26T07:25:45.465Z,98731.94
2022-08-26T07:27:19.656Z,98729.19
2022-08-26T07:28:55.993Z,98730.84
2022-08-26T07:30:31.077Z,98729.19
2022-08-26T07:32:05.120Z,98728.47
2022-08-26T07:33:39.812Z,98727.66
2022-08-26T07:35:14.263Z,98725.63
2022-08-26T07:36:47.639Z,98725.84
2022-08-26T07:38:22.006Z,98727.59
2022-08-26T07:39:56.518Z,98728.19
2022-08-26T07:43:08.476Z,98718.84
2022-08-26T07:44:43.736Z,98720.97
2022-08-26T07:46:27.236Z,98709.97
2022-08-26T07:48:04.057Z,98714.69
2022-08-26T07:49:38.181Z,98716.78
2022-08-26T07:51:11.530Z,98709.25
2022-08-26T07:52:45.341Z,98712.28
2022-08-26T07:54:18.871Z,98705.88
2022-08-26T07:55:52.548Z,98706.38
2022-08-26T07:57:26.384Z,98701.13
2022-08-26T07:58:59.821Z,98692.69
2022-08-26T08:00:35.554Z,98701.97
2022-08-26T08:02:10.238Z,98695.25
2022-08-26T08:03:44.650Z,98689.50
2022-08-26T08:05:21.364Z,98685.09
2022-08-26T08:06:55.807Z,98685.09
2022-08-26T08:08:29.283Z,98689.16
2022-08-26T08:10:04.595Z,98688.44
2022-08-26T08:11:41.497Z,98685.19
2022-08-26T08:13:16.648Z,98685.28
2022-08-26T08:14:52.499Z,98687.13
2022-08-26T08:16:32.262Z,98684.03
2022-08-26T08:18:15.446Z,98686.31
2022-08-26T08:19:49.386Z,98686.06
2022-08-26T08:21:23.993Z,98686.84
2022-08-26T08:22:57.694Z,98675.50
2022-08-26T08:24:31.396Z,98683.31
2022-08-26T08:26:06.947Z,98680.69
2022-08-26T08:27:43.176Z,98679.03
2022-08-26T08:29:16.519Z,98677.03
2022-08-26T08:30:50.055Z,98671.56
2022-08-26T08:32:24.145Z,98671.66
2022-08-26T08:33:58.871Z,98674.22
2022-08-26T08:35:32.716Z,98674.25
2022-08-26T08:37:08.778Z,98674.16
2022-08-26T08:38:45.439Z,98668.84
2022-08-26T08:40:18.957Z,98674.25
2022-08-26T08:42:07.759Z,98676.78
2022-08-26T08:43:47.559Z,98667.88
2022-08-26T08:45:33.330Z,98669.97
2022-08-26T08:47:18.764Z,98668.63
2022-08-26T08:48:59.948Z,98664.94
2022-08-26T08:50:38.427Z,98665.78
2022-08-26T08:52:28.976Z,98664.72
2022-08-26T08:54:03.541Z,98663.25
2022-08-26T08:55:48.818Z,98666.50
2022-08-26T08:57:28.967Z,98665.06
2022-08-26T08:59:16.509Z,98667.69
2022-08-26T09:00:55.429Z,98674.09
2022-08-26T09:02:35.853Z,98666.84
2022-08-26T09:04:31.160Z,98672.25
2022-08-26T09:06:16.970Z,98680.88
2022-08-26T09:07:54.825Z,98675.72
2022-08-26T09:09:34.868Z,98673.53
2022-08-26T09:11:08.098Z,98682.72
2022-08-26T09:12:44.905Z,98677.88
2022-08-26T09:14:18.924Z,98676.19
2022-08-26T09:16:01.875Z,98670.75
2022-08-26T09:17:45.533Z,98679.22
2022-08-26T09:19:28.497Z,98659.88
2022-08-26T09:21:04.412Z,98670.59
2022-08-26T09:22:40.350Z,98672.38
2022-08-26T09:24:18.141Z,98667.22
2022-08-26T09:27:44.053Z,98665.88
2022-08-26T09:29:22.956Z,98667.31
2022-08-26T09:31:07.943Z,98667.13
2022-08-26T09:32:55.978Z,98670.38
2022-08-26T09:34:29.722Z,98657.41
2022-08-26T09:36:23.068Z,98666.91
2022-08-26T09:38:00.290Z,98657.94
2022-08-26T09:39:37.669Z,98664.53
2022-08-26T09:41:27.231Z,98656.31
2022-08-26T09:43:09.815Z,98644.06
2022-08-26T09:44:56.553Z,98646.38
2022-08-26T09:46:30.556Z,98643.81
2022-08-26T09:48:04.836Z,98651.84
2022-08-26T09:49:39.833Z,98645.53
2022-08-26T09:51:31.599Z,98648.47
2022-08-26T09:53:12.878Z,98646.13
2022-08-26T09:54:59.308Z,98640.88
2022-08-26T09:56:35.513Z,98623.16
2022-08-26T09:58:13.614Z,98623.38
2022-08-26T09:59:47.255Z,98627.00
2022-08-26T10:01:31.978Z,98632.06
2022-08-26T10:03:24.824Z,98627.66
2022-08-26T10:05:04.461Z,98616.91
2022-08-26T10:06:45.214Z,98612.69
2022-08-26T10:08:27.436Z,98623.09
2022-08-26T10:10:01.463Z,98626.41
2022-08-26T10:11:40.891Z,98623.50
2022-08-26T10:13:21.120Z,98612.13
2022-08-26T10:15:03.280Z,98613.78
2022-08-26T10:16:44.194Z,98617.34
2022-08-26T10:18:23.747Z,98614.16
2022-08-26T10:20:04.103Z,98616.63
2022-08-26T10:21:52.273Z,98616.13
2022-08-26T10:23:34.075Z,98602.69
2022-08-26T10:25:13.117Z,98620.47
2022-08-26T10:26:59.619Z,98611.19
2022-08-26T10:28:38.372Z,98602.78
2022-08-26T10:30:15.323Z,98607.44
2022-08-26T10:31:53.099Z,98606.25
2022-08-26T10:33:26.849Z,98612.16
2022-08-26T10:35:00.121Z,98596.16
2022-08-26T10:37:14.917Z,98595.34
2022-08-26T10:38:47.544Z,98606.31
2022-08-26T10:40:26.608Z,98604.84
2022-08-26T10:42:04.611Z,98599.63
2022-08-26T10:43:43.094Z,98595.34
2022-08-26T10:45:20.671Z,98595.97
2022-08-26T10:46:59.997Z,98595.75
2022-08-26T10:48:40.749Z,98590.31
2022-08-26T10:50:14.103Z,98595.00
2022-08-26T10:51:59.521Z,98590.13
2022-08-26T10:53:44.293Z,98594.09
2022-08-26T10:55:25.925Z,98591.34
2022-08-26T10:57:03.606Z,98597.44
2022-08-26T10:58:53.735Z,98582.31
2022-08-26T11:01:10.496Z,98581.91
2022-08-26T11:02:50.439Z,98578.97
2022-08-26T11:04:39.320Z,98576.00
2022-08-26T11:06:24.080Z,98569.91
2022-08-26T11:08:32.763Z,98577.25
2022-08-26T11:10:14.085Z,98581.69
2022-08-26T11:11:50.845Z,98576.19
2022-08-26T11:13:57.327Z,98579.78
2022-08-26T11:16:10.244Z,98580.66
2022-08-26T11:18:00.115Z,98576.03
2022-08-26T11:20:09.249Z,98578.13
2022-08-26T11:21:52.181Z,98572.84
2022-08-26T11:23:50.811Z,98567.16
2022-08-26T11:25:30.779Z,98570.50
2022-08-26T11:27:03.524Z,98570.09
2022-08-26T11:28:40.027Z,98576.88
2022-08-26T11:30:40.025Z,98573.25
2022-08-26T11:32:26.317Z,98576.88
2022-08-26T11:34:00.739Z,98569.09
2022-08-26T11:35:52.184Z,98568.88
2022-08-26T11:37:33.215Z,98561.69
2022-08-26T11:39:20.166Z,98564.22
2022-08-26T11:41:09.463Z,98558.72
2022-08-26T11:42:45.852Z,98560.84
2022-08-26T11:44:21.956Z,98557.06
2022-08-26T11:46:01.784Z,98547.38
2022-08-26T11:47:35.786Z,98557.94
2022-08-26T11:49:13.091Z,98549.47
2022-08-26T11:50:54.477Z,98537.66
2022-08-26T11:52:28.565Z,98547.56
2022-08-26T11:54:13.334Z,98544.41
2022-08-26T11:55:47.280Z,98546.50
2022-08-26T11:57:20.663Z,98546.06
2022-08-26T11:58:58.827Z,98542.72
2022-08-26T12:00:47.894Z,98546.06
2022-08-26T12:02:21.780Z,98538.47
2022-08-26T12:03:55.813Z,98543.94
2022-08-26T12:05:37.513Z,98542.50
2022-08-26T12:07:13.115Z,98536.81
2022-08-26T12:08:48.249Z,98534.69
2022-08-26T12:10:31.049Z,98537.66
2022-08-26T12:12:15.870Z,98529.88
2022-08-26T12:13:57.708Z,98528.19
2022-08-26T12:15:33.313Z,98524.59
2022-08-26T12:17:11.363Z,98528.19
2022-08-26T12:18:44.829Z,98523.34
2022-08-26T12:20:28.493Z,98519.59
2022-08-26T12:22:04.267Z,98513.22
2022-08-26T12:23:46.813Z,98520.84
2022-08-26T12:25:25.020Z,98514.09
2022-08-26T12:27:16.899Z,98523.78
2022-08-26T12:28:54.093Z,98510.72
2022-08-26T12:30:27.475Z,98513.22
2022-08-26T12:32:11.176Z,98520.81
2022-08-26T12:33:44.518Z,98511.53
2022-08-26T12:35:21.615Z,98513.41
2022-08-26T12:38:40.495Z,98514.25
2022-08-26T12:40:34.405Z,98509.81
2022-08-26T12:42:25.285Z,98509.81
2022-08-26T12:43:58.599Z,98500.50
2022-08-26T12:45:34.573Z,98516.13
2022-08-26T12:47:11.323Z,98498.19
2022-08-26T12:48:48.601Z,98498.81
2022-08-26T12:50:24.983Z,98503.47
2022-08-26T12:51:58.374Z,98506.84
2022-08-26T12:53:33.554Z,98495.47
2022-08-26T12:55:19.328Z,98501.00
2022-08-26T12:56:52.693Z,98493.44
2022-08-26T12:58:30.021Z,98501.44
2022-08-26T13:00:32.958Z,98498.50
2022-08-26T13:02:07.221Z,98498.09
2022-08-26T13:03:44.999Z,98501.03
2022-08-26T13:11:31.236Z,98492.19
2022-08-26T13:13:03.616Z,98488.19
2022-08-26T13:14:36.770Z,98483.75
2022-08-26T13:16:10.059Z,98478.72
2022-08-26T13:17:43.767Z,98476.19
2022-08-26T13:19:20.023Z,98487.13
2022-08-26T13:20:53.282Z,98496.19
2022-08-26T13:22:26.908Z,98479.53
2022-08-26T13:24:06.530Z,98482.50
2022-08-26T13:25:39.758Z,98489.25
2022-08-26T13:39:23.594Z,98479.09
2022-08-26T13:40:59.751Z,98467.72
2022-08-26T13:42:32.897Z,98473.41
2022-08-26T13:44:08.153Z,98472.34
2022-08-26T13:45:41.644Z,98471.53
2022-08-26T13:47:15.260Z,98472.19
2022-08-26T13:52:30.478Z,98456.78
2022-08-26T13:54:05.114Z,98471.94
2022-08-26T13:55:38.415Z,98466.72
2022-08-26T13:57:11.733Z,98465.66
2022-08-26T13:58:46.236Z,98466.94
2022-08-26T14:00:20.460Z,98460.19
2022-08-26T14:01:53.716Z,98465.66
2022-08-26T14:03:27.007Z,98455.16
2022-08-26T14:05:00.643Z,98457.22
2022-08-26T14:06:34.194Z,98459.75
2022-08-26T14:08:09.055Z,98454.28
2022-08-26T14:09:42.315Z,98461.44
2022-08-26T14:11:15.741Z,98462.50
2022-08-26T14:12:48.966Z,98461.44
2022-08-26T14:14:22.124Z,98461.66
2022-08-26T14:15:56.624Z,98459.97
2022-08-26T14:17:30.746Z,98463.31
2022-08-26T14:19:06.736Z,98456.81
2022-08-26T14:20:40.615Z,98446.28
2022-08-26T14:22:15.402Z,98458.91
2022-08-26T14:23:50.226Z,98449.84
2022-08-26T14:25:25.360Z,98455.75
2022-08-26T14:26:58.652Z,98456.38
2022-08-26T14:28:32.068Z,98460.59
2022-08-26T14:30:06.358Z,98450.91
2022-08-26T14:31:39.762Z,98456.38
2022-08-26T14:33:16.701Z,98450.91
2022-08-26T14:34:50.106Z,98445.66
2022-08-26T14:36:28.491Z,98460.56
2022-08-26T14:38:01.891Z,98462.72
2022-08-26T14:39:37.136Z,98453.63
2022-08-26T14:41:13.250Z,98452.59
2022-08-26T14:43:07.632Z,98458.84
2022-08-26T14:44:44.881Z,98456.72
2022-08-26T14:46:18.691Z,98452.53
2022-08-26T14:47:53.690Z,98454.38
2022-08-26T14:49:27.919Z,98460.50
2022-08-26T14:51:01.137Z,98449.56
2022-08-26T14:52:55.166Z,98445.78
2022-08-26T14:54:29.225Z,98447.88
2022-08-26T14:56:04.394Z,98448.31
2022-08-26T14:57:39.028Z,98450.81
2022-08-26T14:59:12.908Z,98455.06
2022-08-26T15:00:46.300Z,98451.50
2022-08-26T15:02:32.688Z,98457.84
2022-08-26T15:04:06.908Z,98446.25
2022-08-26T15:05:47.960Z,98449.84
2022-08-26T15:07:21.827Z,98451.72
2022-08-26T15:08:55.387Z,98458.88
2022-08-26T15:10:28.703Z,98452.78
2022-08-26T15:12:03.970Z,98453.03
2022-08-26T15:13:37.674Z,98457.22
2022-08-26T15:15:13.020Z,98460.97
2022-08-26T15:16:46.251Z,98462.03
2022-08-26T15:18:19.592Z,98450.91
2022-08-26T15:20:01.249Z,98457.41
2022-08-26T15:21:35.436Z,98451.31
2022-08-26T15:23:08.903Z,98454.28
2022-08-26T15:24:42.784Z,98452.16
2022-08-26T15:26:17.707Z,98444.38
2022-08-26T15:27:52.602Z,98436.19
2022-08-26T15:29:25.862Z,98453.84
2022-08-26T15:31:00.501Z,98448.38
2022-08-26T15:32:34.231Z,98450.91
2022-08-26T15:34:14.558Z,98449.22
2022-08-26T15:35:49.770Z,98451.13
2022-08-26T15:37:23.166Z,98453.44
2022-08-26T15:38:57.420Z,98446.31
2022-08-26T15:40:30.979Z,98442.91
2022-08-26T15:42:04.887Z,98440.41
2022-08-26T15:43:39.582Z,98442.50
2022-08-26T15:45:13.489Z,98437.88
2022-08-26T15:46:59.580Z,98438.28
2022-08-26T15:48:32.942Z,98429.88
2022-08-26T15:50:07.500Z,98444.63
2022-08-26T15:51:45.408Z,98441.25
2022-08-26T15:53:19.617Z,98439.75
2022-08-26T15:54:53.117Z,98426.50
2022-08-26T15:56:27.608Z,98431.31
2022-08-26T15:58:01.499Z,98442.88
2022-08-26T15:59:37.247Z,98427.94
2022-08-26T16:01:10.690Z,98421.00
2022-08-26T16:02:44.362Z,98435.94
2022-08-26T16:04:18.807Z,98429.00
2022-08-26T16:05:52.153Z,98429.81
2022-08-26T16:07:25.684Z,98442.00
2022-08-26T16:08:59.587Z,98435.22
2022-08-26T16:10:32.893Z,98439.41
2022-08-26T16:12:06.676Z,98441.94
2022-08-26T16:13:40.300Z,98443.19
2022-08-26T16:15:15.233Z,98440.66
2022-08-26T16:16:48.995Z,98437.28
2022-08-26T16:18:23.655Z,98438.94
2022-08-26T16:19:57.198Z,98433.06
2022-08-26T16:21:30.550Z,98439.94
2022-08-26T16:23:05.357Z,98440.19
2022-08-26T16:24:38.978Z,98435.94
2022-08-26T16:26:14.311Z,98446.03
2022-08-26T16:27:47.616Z,98448.97
2022-08-26T16:29:21.676Z,98448.06
2022-08-26T16:30:56.633Z,98445.94
2022-08-26T16:32:31.339Z,98433.72
2022-08-26T16:34:05.230Z,98442.91
2022-08-26T16:35:38.949Z,98442.03
2022-08-26T16:37:12.275Z,98441.19
2022-08-26T16:38:50.090Z,98442.38
2022-08-26T16:40:23.526Z,98444.47
2022-08-26T16:41:57.188Z,98447.59
2022-08-26T16:43:30.542Z,98453.22
2022-08-26T16:45:03.862Z,98446.38
2022-08-26T16:46:39.727Z,98445.09
2022-08-26T16:48:13.700Z,98455.97
2022-08-26T16:49:47.689Z,98442.88
2022-08-26T16:51:23.688Z,98451.19
2022-08-26T16:52:57.551Z,98452.38
2022-08-26T16:54:31.115Z,98449.13
2022-08-26T16:56:04.974Z,98453.84
2022-08-26T16:57:38.713Z,98454.25
2022-08-26T16:59:12.218Z,98463.78
2022-08-26T17:00:45.549Z,98454.41
2022-08-26T17:02:20.244Z,98461.28
2022-08-26T17:03:54.320Z,98464.81
2022-08-26T17:05:28.820Z,98458.81
2022-08-26T17:07:02.845Z,98459.00
2022-08-26T17:08:38.390Z,98463.31
2022-08-26T17:10:12.412Z,98460.72
2022-08-26T17:11:45.769Z,98473.41
2022-08-26T17:13:20.970Z,98474.16
2022-08-26T17:15:09.824Z,98463.75
2022-08-26T17:16:43.205Z,98468.53
2022-08-26T17:18:17.828Z,98472.38
2022-08-26T17:19:51.135Z,98474.84
2022-08-26T17:21:24.725Z,98478.13
2022-08-26T17:22:59.012Z,98470.38
2022-08-26T17:24:35.014Z,98469.56
2022-08-26T17:26:09.443Z,98473.47
2022-08-26T17:27:44.278Z,98471.97
2022-08-26T17:29:17.505Z,98477.78
2022-08-26T17:30:50.798Z,98470.56
2022-08-26T17:32:24.318Z,98468.78
2022-08-26T17:33:59.148Z,98472.06
2022-08-26T17:35:32.713Z,98474.84
2022-08-26T17:37:05.975Z,98464.63
2022-08-26T17:38:39.978Z,98470.75
2022-08-26T17:40:18.194Z,98475.59
2022-08-26T17:41:51.627Z,98483.84
2022-08-26T17:43:26.838Z,98484.38
2022-08-26T17:45:00.452Z,98483.63
2022-08-26T17:46:38.233Z,98488.53
2022-08-26T17:48:12.162Z,98485.53
2022-08-26T17:49:46.808Z,98485.03
2022-08-26T17:51:21.152Z,98492.53
2022-08-26T17:52:54.363Z,98494.94
2022-08-26T17:54:27.760Z,98489.88
2022-08-26T17:56:03.462Z,98495.31
2022-08-26T17:57:40.947Z,98497.34
2022-08-26T17:59:15.631Z,98490.06
2022-08-26T18:00:52.344Z,98487.03
2022-08-26T18:02:25.732Z,98490.06
2022-08-26T18:04:00.625Z,98487.53
2022-08-26T18:05:35.898Z,98498.03
2022-08-26T18:07:09.400Z,98504.31
2022-08-26T18:08:44.057Z,98500.44
2022-08-26T18:10:19.815Z,98510.66
2022-08-26T18:11:52.991Z,98509.97
2022-08-26T18:13:26.279Z,98506.78
2022-08-26T18:14:59.763Z,98502.72
2022-08-26T18:16:38.302Z,98502.56
2022-08-26T18:18:11.991Z,98510.41
2022-08-26T18:19:45.361Z,98507.59
2022-08-26T18:21:21.868Z,98502.72
2022-08-26T18:22:55.767Z,98507.81
2022-08-26T18:24:30.470Z,98513.91
2022-08-26T18:26:03.900Z,98514.56
2022-08-26T18:27:38.377Z,98510.84
2022-08-26T18:29:11.674Z,98521.34
2022-08-26T18:30:44.791Z,98512.53
2022-08-26T18:32:18.180Z,98514.22
2022-08-26T18:33:51.906Z,98514.94
2022-08-26T18:35:28.508Z,98520.00
2022-08-26T18:37:03.187Z,98517.28
2022-08-26T18:38:36.683Z,98517.97
2022-08-26T18:40:13.338Z,98521.34
2022-08-26T18:41:49.926Z,98515.06
2022-08-26T18:43:23.119Z,98516.28
2022-08-26T18:44:56.821Z,98515.94
2022-08-26T18:46:30.158Z,98523.91
2022-08-26T18:48:04.865Z,98523.13
2022-08-26T18:49:38.195Z,98510.94
2022-08-26T18:51:17.910Z,98517.56
2022-08-26T18:52:52.483Z,98528.59
2022-08-26T18:54:26.249Z,98522.50
2022-08-26T18:55:59.557Z,98531.31
2022-08-26T18:57:32.753Z,98534.56
2022-08-26T18:59:08.295Z,98533.72
2022-08-26T19:00:41.788Z,98527.59
2022-08-26T19:02:15.164Z,98533.66
2022-08-26T19:03:48.830Z,98527.25
2022-08-26T19:05:22.232Z,98532.16
2022-08-26T19:06:56.084Z,98534.19
2022-08-26T19:08:30.673Z,98536.38
2022-08-26T19:10:04.449Z,98530.97
2022-08-26T19:11:42.893Z,98541.81
2022-08-26T19:13:16.706Z,98532.31
2022-08-26T19:14:50.696Z,98532.66
2022-08-26T19:16:26.662Z,98536.19
2022-08-26T19:18:00.137Z,98525.88
2022-08-26T19:19:33.928Z,98529.25
2022-08-26T19:21:06.415Z,98531.94
2022-08-26T19:22:39.685Z,98536.00
2022-08-26T19:24:17.685Z,98531.28